sensor_id;sensor_type;location;lat;lon;timestamp;pressure;altitude;pressure_sealevel;temperature;humidity
79481;BME280;68944;48.262;14.208;2024-02-21T00:02:03;99337.72;;;4.94;100.00
79481;BME280;68944;48.262;14.208;2024-02-21T00:04:29;99335.56;;;4.89;100.00
79481;BME280;68944;48.262;14.208;2024-02-21T00:06:55;99330.03;;;5.00;100.00
79481;BME280;68944;48.262;14.208;2024-02-21T00:09:20;99324.63;;;5.02;100.00
79481;BME280;68944;48.262;14.208;2024-02-21T00:11:46;99329.72;;;5.04;100.00
79481;BME280;68944;48.262;14.208;2024-02-21T00:14:11;99331.03;;;5.08;100.00
79481;BME280;68944;48.262;14.208;2024-02-21T00:16:37;99320.53;;;5.08;100.00
79481;BME280;68944;48.262;14.208;2024-02-21T00:19:02;99318.13;;;5.15;100.00
79481;BME280;68944;48.262;14.208;2024-02-21T00:21:28;99316.63;;;5.20;100.00
79481;BME280;68944;48.262;14.208;2024-02-21T00:23:53;99317.41;;;5.12;100.00
79481;BME280;68944;48.262;14.208;2024-02-21T00:26:19;99316.47;;;5.14;100.00
79481;BME280;68944;48.262;14.208;2024-02-21T00:28:44;99312.72;;;5.24;100.00
79481;BME280;68944;48.262;14.208;2024-02-21T00:31:10;99314.13;;;5.10;100.00
79481;BME280;68944;48.262;14.208;2024-02-21T00:33:36;99317.41;;;5.04;100.00
79481;BME280;68944;48.262;14.208;2024-02-21T00:36:01;99314.78;;;5.04;100.00
79481;BME280;68944;48.262;14.208;2024-02-21T00:38:27;99318.91;;;5.07;100.00
79481;BME280;68944;48.262;14.208;2024-02-21T00:40:52;99310.16;;;4.98;100.00
79481;BME280;68944;48.262;14.208;2024-02-21T00:43:18;99305.53;;;4.92;100.00
79481;BME280;68944;48.262;14.208;2024-02-21T00:45:43;99312.41;;;4.84;100.00
79481;BME280;68944;48.262;14.208;2024-02-21T00:48:09;99308.31;;;4.82;100.00
79481;BME280;68944;48.262;14.208;2024-02-21T00:50:34;99308.44;;;4.80;100.00
79481;BME280;68944;48.262;14.208;2024-02-21T00:53:00;99306.16;;;4.85;100.00
79481;BME280;68944;48.262;14.208;2024-02-21T00:55:26;99307.16;;;4.84;100.00
79481;BME280;68944;48.262;14.208;2024-02-21T00:57:51;99295.66;;;4.85;100.00
79481;BME280;68944;48.262;14.208;2024-02-21T01:00:17;99298.66;;;4.91;100.00
79481;BME280;68944;48.262;14.208;2024-02-21T01:02:43;99300.56;;;4.80;100.00
79481;BME280;68944;48.262;14.208;2024-02-21T01:05:08;99304.53;;;4.84;100.00
79481;BME280;68944;48.262;14.208;2024-02-21T01:07:34;99299.41;;;4.83;100.00
79481;BME280;68944;48.262;14.208;2024-02-21T01:09:59;99301.56;;;4.79;100.00
79481;BME280;68944;48.262;14.208;2024-02-21T01:12:25;99306.59;;;4.72;100.00
79481;BME280;68944;48.262;14.208;2024-02-21T01:14:50;99307.78;;;4.78;100.00
79481;BME280;68944;48.262;14.208;2024-02-21T01:17:16;99301.56;;;4.79;100.00
79481;BME280;68944;48.262;14.208;2024-02-21T01:19:41;99302.56;;;4.86;100.00
79481;BME280;68944;48.262;14.208;2024-02-21T01:22:07;99295.53;;;4.95;100.00
79481;BME280;68944;48.262;14.208;2024-02-21T01:24:33;99294.06;;;5.01;100.00
79481;BME280;68944;48.262;14.208;2024-02-21T01:26:58;99295.72;;;5.02;100.00
79481;BME280;68944;48.262;14.208;2024-02-21T01:29:24;99291.50;;;5.09;100.00
79481;BME280;68944;48.262;14.208;2024-02-21T01:31:49;99284.75;;;5.07;100.00
79481;BME280;68944;48.262;14.208;2024-02-21T01:34:15;99290.00;;;4.98;100.00
79481;BME280;68944;48.262;14.208;2024-02-21T01:36:41;99285.69;;;4.89;100.00
79481;BME280;68944;48.262;14.208;2024-02-21T01:39:07;99284.19;;;4.86;100.00
79481;BME280;68944;48.262;14.208;2024-02-21T01:41:33;99279.25;;;4.83;100.00
79481;BME280;68944;48.262;14.208;2024-02-21T01:43:58;99278.41;;;4.83;100.00
79481;BME280;68944;48.262;14.208;2024-02-21T01:46:24;99272.69;;;4.87;100.00
79481;BME280;68944;48.262;14.208;2024-02-21T01:48:55;99271.72;;;4.88;100.00
79481;BME280;68944;48.262;14.208;2024-02-21T01:51:21;99263.84;;;4.88;100.00
79481;BME280;68944;48.262;14.208;2024-02-21T01:53:47;99262.63;;;4.74;100.00
79481;BME280;68944;48.262;14.208;2024-02-21T01:56:13;99268.66;;;4.66;100.00
79481;BME280;68944;48.262;14.208;2024-02-21T01:58:40;99266.03;;;4.58;100.00
79481;BME280;68944;48.262;14.208;2024-02-21T02:01:06;99260.56;;;4.51;100.00
79481;BME280;68944;48.262;14.208;2024-02-21T02:03:32;99259.09;;;4.49;100.00
79481;BME280;68944;48.262;14.208;2024-02-21T02:05:59;99249.06;;;4.44;100.00
79481;BME280;68944;48.262;14.208;2024-02-21T02:08:24;99252.69;;;4.51;100.00
79481;BME280;68944;48.262;14.208;2024-02-21T02:10:51;99257.38;;;4.66;100.00
79481;BME280;68944;48.262;14.208;2024-02-21T02:13:17;99254.41;;;4.69;100.00
79481;BME280;68944;48.262;14.208;2024-02-21T02:15:47;99251.31;;;4.74;100.00
79481;BME280;68944;48.262;14.208;2024-02-21T02:21:39;99240.16;;;4.37;100.00
79481;BME280;68944;48.262;14.208;2024-02-21T02:24:07;99236.16;;;4.24;100.00
79481;BME280;68944;48.262;14.208;2024-02-21T02:26:33;99227.78;;;4.20;100.00
79481;BME280;68944;48.262;14.208;2024-02-21T02:29:01;99230.94;;;4.24;100.00
79481;BME280;68944;48.262;14.208;2024-02-21T02:31:27;99223.47;;;4.46;100.00
79481;BME280;68944;48.262;14.208;2024-02-21T02:33:53;99227.88;;;4.37;100.00
79481;BME280;68944;48.262;14.208;2024-02-21T02:36:18;99230.66;;;4.36;100.00
79481;BME280;68944;48.262;14.208;2024-02-21T02:38:44;99218.66;;;4.33;100.00
79481;BME280;68944;48.262;14.208;2024-02-21T02:41:10;99212.59;;;4.32;100.00
79481;BME280;68944;48.262;14.208;2024-02-21T02:43:35;99210.78;;;4.33;100.00
79481;BME280;68944;48.262;14.208;2024-02-21T02:46:02;99214.22;;;4.33;100.00
79481;BME280;68944;48.262;14.208;2024-02-21T02:48:29;99208.66;;;4.28;100.00
79481;BME280;68944;48.262;14.208;2024-02-21T02:50:55;99210.41;;;4.19;100.00
79481;BME280;68944;48.262;14.208;2024-02-21T02:53:24;99210.44;;;4.28;100.00
79481;BME280;68944;48.262;14.208;2024-02-21T02:55:50;99203.22;;;4.30;100.00
79481;BME280;68944;48.262;14.208;2024-02-21T02:58:16;99198.47;;;4.33;100.00
79481;BME280;68944;48.262;14.208;2024-02-21T03:00:42;99189.16;;;4.39;100.00
79481;BME280;68944;48.262;14.208;2024-02-21T03:03:07;99190.34;;;4.45;100.00
79481;BME280;68944;48.262;14.208;2024-02-21T03:05:34;99187.38;;;4.40;100.00
79481;BME280;68944;48.262;14.208;2024-02-21T03:08:00;99186.19;;;4.34;100.00
79481;BME280;68944;48.262;14.208;2024-02-21T03:10:25;99189.47;;;4.36;100.00
79481;BME280;68944;48.262;14.208;2024-02-21T03:12:51;99187.38;;;4.40;100.00
79481;BME280;68944;48.262;14.208;2024-02-21T03:15:18;99184.41;;;4.43;100.00
79481;BME280;68944;48.262;14.208;2024-02-21T03:17:44;99176.25;;;4.46;100.00
79481;BME280;68944;48.262;14.208;2024-02-21T03:20:10;99175.59;;;4.52;100.00
79481;BME280;68944;48.262;14.208;2024-02-21T03:22:36;99176.47;;;4.61;100.00
79481;BME280;68944;48.262;14.208;2024-02-21T03:25:03;99166.13;;;4.60;100.00
79481;BME280;68944;48.262;14.208;2024-02-21T03:27:29;99165.63;;;4.64;100.00
79481;BME280;68944;48.262;14.208;2024-02-21T03:29:54;99164.97;;;4.62;100.00
79481;BME280;68944;48.262;14.208;2024-02-21T03:32:20;99170.41;;;4.61;100.00
79481;BME280;68944;48.262;14.208;2024-02-21T03:34:45;99166.94;;;4.60;100.00
79481;BME280;68944;48.262;14.208;2024-02-21T03:37:11;99168.38;;;4.54;100.00
79481;BME280;68944;48.262;14.208;2024-02-21T03:39:39;99173.81;;;4.53;100.00
79481;BME280;68944;48.262;14.208;2024-02-21T03:42:05;99164.78;;;4.47;100.00
79481;BME280;68944;48.262;14.208;2024-02-21T03:44:31;99166.78;;;4.62;100.00
79481;BME280;68944;48.262;14.208;2024-02-21T03:46:58;99157.63;;;4.66;100.00
79481;BME280;68944;48.262;14.208;2024-02-21T03:49:24;99154.19;;;4.74;100.00
79481;BME280;68944;48.262;14.208;2024-02-21T03:51:49;99166.44;;;4.57;100.00
79481;BME280;68944;48.262;14.208;2024-02-21T03:54:15;99161.81;;;4.50;100.00
79481;BME280;68944;48.262;14.208;2024-02-21T03:56:41;99168.53;;;4.44;100.00
79481;BME280;68944;48.262;14.208;2024-02-21T03:59:07;99161.28;;;4.38;100.00
79481;BME280;68944;48.262;14.208;2024-02-21T04:01:34;99166.69;;;4.37;100.00
79481;BME280;68944;48.262;14.208;2024-02-21T04:04:00;99170.44;;;4.34;100.00
79481;BME280;68944;48.262;14.208;2024-02-21T04:06:25;99165.06;;;4.36;100.00
79481;BME280;68944;48.262;14.208;2024-02-21T04:08:51;99176.34;;;4.36;100.00
79481;BME280;68944;48.262;14.208;2024-02-21T04:11:16;99170.50;;;4.51;100.00
79481;BME280;68944;48.262;14.208;2024-02-21T04:13:44;99163.97;;;4.55;100.00
79481;BME280;68944;48.262;14.208;2024-02-21T04:16:10;99162.00;;;4.57;100.00
79481;BME280;68944;48.262;14.208;2024-02-21T04:18:36;99154.13;;;4.49;100.00
79481;BME280;68944;48.262;14.208;2024-02-21T04:21:01;99155.06;;;4.48;100.00
79481;BME280;68944;48.262;14.208;2024-02-21T04:23:27;99149.69;;;4.49;100.00
79481;BME280;68944;48.262;14.208;2024-02-21T04:25:52;99151.50;;;4.57;100.00
79481;BME280;68944;48.262;14.208;2024-02-21T04:28:18;99150.88;;;4.63;100.00
79481;BME280;68944;48.262;14.208;2024-02-21T04:30:43;99144.31;;;4.68;100.00
79481;BME280;68944;48.262;14.208;2024-02-21T04:33:09;99146.31;;;4.74;100.00
79481;BME280;68944;48.262;14.208;2024-02-21T04:35:38;99144.34;;;4.76;100.00
79481;BME280;68944;48.262;14.208;2024-02-21T04:38:05;99135.50;;;4.77;100.00
79481;BME280;68944;48.262;14.208;2024-02-21T04:40:31;99139.09;;;4.76;100.00
79481;BME280;68944;48.262;14.208;2024-02-21T04:42:57;99138.13;;;4.77;100.00
79481;BME280;68944;48.262;14.208;2024-02-21T04:45:24;99143.00;;;4.72;100.00
79481;BME280;68944;48.262;14.208;2024-02-21T04:47:49;99145.59;;;4.55;100.00
79481;BME280;68944;48.262;14.208;2024-02-21T04:50:15;99140.34;;;4.55;100.00
79481;BME280;68944;48.262;14.208;2024-02-21T04:52:40;99138.38;;;4.49;100.00
79481;BME280;68944;48.262;14.208;2024-02-21T04:55:06;99139.19;;;4.49;100.00
79481;BME280;68944;48.262;14.208;2024-02-21T04:57:32;99125.53;;;4.29;100.00
79481;BME280;68944;48.262;14.208;2024-02-21T04:59:58;99129.47;;;4.33;100.00
79481;BME280;68944;48.262;14.208;2024-02-21T05:02:23;99137.63;;;4.21;100.00
79481;BME280;68944;48.262;14.208;2024-02-21T05:04:50;99137.94;;;4.18;100.00
79481;BME280;68944;48.262;14.208;2024-02-21T05:07:16;99136.44;;;4.16;100.00
79481;BME280;68944;48.262;14.208;2024-02-21T05:09:42;99131.25;;;4.24;100.00
79481;BME280;68944;48.262;14.208;2024-02-21T05:12:08;99134.19;;;4.29;100.00
79481;BME280;68944;48.262;14.208;2024-02-21T05:14:34;99129.56;;;4.15;100.00
79481;BME280;68944;48.262;14.208;2024-02-21T05:16:59;99134.94;;;4.13;100.00
79481;BME280;68944;48.262;14.208;2024-02-21T05:19:25;99129.22;;;4.09;100.00
79481;BME280;68944;48.262;14.208;2024-02-21T05:21:51;99130.63;;;4.04;100.00
79481;BME280;68944;48.262;14.208;2024-02-21T05:24:16;99125.88;;;3.99;100.00
79481;BME280;68944;48.262;14.208;2024-02-21T05:26:42;99123.88;;;3.93;100.00
79481;BME280;68944;48.262;14.208;2024-02-21T05:29:07;99122.25;;;3.92;100.00
79481;BME280;68944;48.262;14.208;2024-02-21T05:32:02;99114.22;;;3.93;100.00
79481;BME280;68944;48.262;14.208;2024-02-21T05:34:28;99112.75;;;3.99;100.00
79481;BME280;68944;48.262;14.208;2024-02-21T05:36:54;99112.63;;;4.01;100.00
79481;BME280;68944;48.262;14.208;2024-02-21T05:39:20;99117.19;;;3.98;100.00
79481;BME280;68944;48.262;14.208;2024-02-21T05:41:48;99115.03;;;3.94;100.00
79481;BME280;68944;48.262;14.208;2024-02-21T05:44:13;99121.06;;;3.86;100.00
79481;BME280;68944;48.262;14.208;2024-02-21T05:46:39;99120.09;;;3.87;100.00
79481;BME280;68944;48.262;14.208;2024-02-21T05:49:05;99114.31;;;3.83;100.00
79481;BME280;68944;48.262;14.208;2024-02-21T05:51:32;99112.16;;;3.79;100.00
79481;BME280;68944;48.262;14.208;2024-02-21T05:53:59;99118.59;;;3.84;100.00
79481;BME280;68944;48.262;14.208;2024-02-21T05:56:25;99110.38;;;3.79;100.00
79481;BME280;68944;48.262;14.208;2024-02-21T05:58:50;99100.38;;;3.83;100.00
79481;BME280;68944;48.262;14.208;2024-02-21T06:01:16;99100.44;;;3.91;100.00
79481;BME280;68944;48.262;14.208;2024-02-21T06:03:42;99091.59;;;3.92;100.00
79481;BME280;68944;48.262;14.208;2024-02-21T06:06:07;99087.53;;;3.98;100.00
79481;BME280;68944;48.262;14.208;2024-02-21T06:08:33;99079.31;;;4.01;100.00
79481;BME280;68944;48.262;14.208;2024-02-21T06:10:58;99077.88;;;3.98;100.00
79481;BME280;68944;48.262;14.208;2024-02-21T06:13:24;99079.28;;;3.84;100.00
79481;BME280;68944;48.262;14.208;2024-02-21T06:15:53;99089.75;;;3.84;100.00
79481;BME280;68944;48.262;14.208;2024-02-21T06:18:20;99086.00;;;3.87;100.00
79481;BME280;68944;48.262;14.208;2024-02-21T06:20:46;99083.41;;;3.95;100.00
79481;BME280;68944;48.262;14.208;2024-02-21T06:23:18;99077.22;;;4.05;100.00
79481;BME280;68944;48.262;14.208;2024-02-21T06:25:43;99080.34;;;4.08;100.00
79481;BME280;68944;48.262;14.208;2024-02-21T06:28:09;99088.41;;;4.15;100.00
79481;BME280;68944;48.262;14.208;2024-02-21T06:30:35;99090.69;;;4.10;100.00
79481;BME280;68944;48.262;14.208;2024-02-21T06:33:01;99094.94;;;4.11;100.00
79481;BME280;68944;48.262;14.208;2024-02-21T06:35:28;99097.84;;;4.00;100.00
79481;BME280;68944;48.262;14.208;2024-02-21T06:37:54;99100.09;;;3.94;100.00
79481;BME280;68944;48.262;14.208;2024-02-21T06:40:21;99092.94;;;3.96;100.00
79481;BME280;68944;48.262;14.208;2024-02-21T06:42:47;99093.13;;;4.03;100.00
79481;BME280;68944;48.262;14.208;2024-02-21T06:45:12;99086.41;;;4.09;100.00
79481;BME280;68944;48.262;14.208;2024-02-21T06:47:38;99086.59;;;4.16;100.00
79481;BME280;68944;48.262;14.208;2024-02-21T06:50:04;99088.63;;;4.30;100.00
79481;BME280;68944;48.262;14.208;2024-02-21T06:52:29;99078.66;;;4.42;100.00
79481;BME280;68944;48.262;14.208;2024-02-21T06:54:56;99077.00;;;4.50;100.00
79481;BME280;68944;48.262;14.208;2024-02-21T06:57:22;99076.84;;;4.43;100.00
79481;BME280;68944;48.262;14.208;2024-02-21T06:59:48;99079.31;;;4.44;100.00
79481;BME280;68944;48.262;14.208;2024-02-21T07:02:14;99081.13;;;4.44;100.00
79481;BME280;68944;48.262;14.208;2024-02-21T07:04:40;99077.34;;;4.47;100.00
79481;BME280;68944;48.262;14.208;2024-02-21T07:07:05;99072.94;;;4.55;100.00
79481;BME280;68944;48.262;14.208;2024-02-21T07:09:31;99081.16;;;4.61;100.00
79481;BME280;68944;48.262;14.208;2024-02-21T07:11:58;99074.59;;;4.65;100.00
79481;BME280;68944;48.262;14.208;2024-02-21T07:14:23;99074.44;;;4.75;100.00
79481;BME280;68944;48.262;14.208;2024-02-21T07:16:49;99065.56;;;4.76;100.00
79481;BME280;68944;48.262;14.208;2024-02-21T07:19:15;99063.94;;;4.75;100.00
79481;BME280;68944;48.262;14.208;2024-02-21T07:21:40;99065.25;;;4.79;100.00
79481;BME280;68944;48.262;14.208;2024-02-21T07:24:08;99065.09;;;4.81;100.00
79481;BME280;68944;48.262;14.208;2024-02-21T07:26:33;99066.09;;;4.80;100.00
79481;BME280;68944;48.262;14.208;2024-02-21T07:28:59;99069.19;;;4.92;100.00
79481;BME280;68944;48.262;14.208;2024-02-21T07:31:24;99065.59;;;5.09;100.00
79481;BME280;68944;48.262;14.208;2024-02-21T07:33:50;99052.59;;;5.08;100.00
79481;BME280;68944;48.262;14.208;2024-02-21T07:36:27;99049.81;;;5.18;100.00
79481;BME280;68944;48.262;14.208;2024-02-21T07:38:53;99043.09;;;5.23;100.00
79481;BME280;68944;48.262;14.208;2024-02-21T07:41:19;99047.34;;;5.24;100.00
79481;BME280;68944;48.262;14.208;2024-02-21T07:43:44;99041.56;;;5.46;100.00
79481;BME280;68944;48.262;14.208;2024-02-21T07:46:10;99057.84;;;5.33;100.00
79481;BME280;68944;48.262;14.208;2024-02-21T07:48:35;99043.88;;;5.32;100.00
79481;BME280;68944;48.262;14.208;2024-02-21T07:51:01;99052.25;;;5.44;100.00
79481;BME280;68944;48.262;14.208;2024-02-21T07:53:27;99047.47;;;5.48;100.00
79481;BME280;68944;48.262;14.208;2024-02-21T07:55:52;99040.75;;;5.37;100.00
79481;BME280;68944;48.262;14.208;2024-02-21T07:58:18;99025.28;;;5.51;100.00
79481;BME280;68944;48.262;14.208;2024-02-21T08:00:44;99033.41;;;5.73;100.00
79481;BME280;68944;48.262;14.208;2024-02-21T08:03:09;99017.09;;;5.86;100.00
79481;BME280;68944;48.262;14.208;2024-02-21T08:05:35;99020.81;;;6.00;100.00
79481;BME280;68944;48.262;14.208;2024-02-21T08:08:01;99014.38;;;6.11;100.00
79481;BME280;68944;48.262;14.208;2024-02-21T08:10:26;99017.16;;;6.41;100.00
79481;BME280;68944;48.262;14.208;2024-02-21T08:12:52;99011.59;;;6.59;100.00
79481;BME280;68944;48.262;14.208;2024-02-21T08:15:18;99006.00;;;6.63;100.00
79481;BME280;68944;48.262;14.208;2024-02-21T08:17:44;99008.25;;;6.66;100.00
79481;BME280;68944;48.262;14.208;2024-02-21T08:20:10;99011.53;;;6.68;100.00
79481;BME280;68944;48.262;14.208;2024-02-21T08:22:37;99013.72;;;6.64;100.00
79481;BME280;68944;48.262;14.208;2024-02-21T08:25:03;99000.53;;;6.64;100.00
79481;BME280;68944;48.262;14.208;2024-02-21T08:27:30;98989.28;;;6.70;100.00
79481;BME280;68944;48.262;14.208;2024-02-21T08:29:56;98989.94;;;6.72;100.00
79481;BME280;68944;48.262;14.208;2024-02-21T08:32:22;98996.34;;;6.93;100.00
79481;BME280;68944;48.262;14.208;2024-02-21T08:34:47;99002.22;;;6.80;100.00
79481;BME280;68944;48.262;14.208;2024-02-21T08:37:13;98995.56;;;6.69;100.00
79481;BME280;68944;48.262;14.208;2024-02-21T08:39:38;98993.19;;;6.75;100.00
79481;BME280;68944;48.262;14.208;2024-02-21T08:42:04;98998.66;;;6.73;100.00
79481;BME280;68944;48.262;14.208;2024-02-21T08:44:30;98991.56;;;6.74;100.00
79481;BME280;68944;48.262;14.208;2024-02-21T08:46:55;98984.91;;;6.86;100.00
79481;BME280;68944;48.262;14.208;2024-02-21T08:49:21;98988.59;;;6.77;100.00
79481;BME280;68944;48.262;14.208;2024-02-21T08:51:47;98990.50;;;6.83;100.00
79481;BME280;68944;48.262;14.208;2024-02-21T08:54:12;98988.13;;;6.73;100.00
79481;BME280;68944;48.262;14.208;2024-02-21T08:56:38;98988.44;;;6.93;100.00
79481;BME280;68944;48.262;14.208;2024-02-21T08:59:03;98979.50;;;6.79;100.00
79481;BME280;68944;48.262;14.208;2024-02-21T09:01:29;98979.53;;;6.94;100.00
79481;BME280;68944;48.262;14.208;2024-02-21T09:03:54;98981.44;;;7.01;100.00
79481;BME280;68944;48.262;14.208;2024-02-21T09:06:22;98986.47;;;7.26;100.00
79481;BME280;68944;48.262;14.208;2024-02-21T09:08:48;98989.66;;;7.36;100.00
79481;BME280;68944;48.262;14.208;2024-02-21T09:11:14;98989.38;;;7.31;100.00
79481;BME280;68944;48.262;14.208;2024-02-21T09:13:40;98986.09;;;7.44;100.00
79481;BME280;68944;48.262;14.208;2024-02-21T09:16:06;98979.72;;;7.54;100.00
79481;BME280;68944;48.262;14.208;2024-02-21T09:18:32;98971.19;;;7.67;100.00
79481;BME280;68944;48.262;14.208;2024-02-21T09:20:57;98968.91;;;7.63;100.00
79481;BME280;68944;48.262;14.208;2024-02-21T09:23:26;98960.94;;;7.94;100.00
79481;BME280;68944;48.262;14.208;2024-02-21T09:25:52;98951.91;;;8.03;100.00
79481;BME280;68944;48.262;14.208;2024-02-21T09:28:17;98953.50;;;7.82;100.00
79481;BME280;68944;48.262;14.208;2024-02-21T09:30:43;98957.13;;;7.81;100.00
79481;BME280;68944;48.262;14.208;2024-02-21T09:33:16;98964.50;;;7.86;100.00
79481;BME280;68944;48.262;14.208;2024-02-21T09:35:41;98962.69;;;7.87;100.00
79481;BME280;68944;48.262;14.208;2024-02-21T09:38:07;98955.22;;;7.90;100.00
79481;BME280;68944;48.262;14.208;2024-02-21T09:40:32;98958.63;;;7.69;100.00
79481;BME280;68944;48.262;14.208;2024-02-21T09:43:07;98959.25;;;7.71;100.00
79481;BME280;68944;48.262;14.208;2024-02-21T09:45:33;98953.28;;;7.62;100.00
79481;BME280;68944;48.262;14.208;2024-02-21T09:48:24;98958.00;;;7.51;100.00
79481;BME280;68944;48.262;14.208;2024-02-21T09:50:53;98963.75;;;7.55;100.00
79481;BME280;68944;48.262;14.208;2024-02-21T09:53:21;98956.13;;;7.30;100.00
79481;BME280;68944;48.262;14.208;2024-02-21T09:55:50;98961.94;;;7.56;100.00
79481;BME280;68944;48.262;14.208;2024-02-21T09:58:16;98951.81;;;7.59;100.00
79481;BME280;68944;48.262;14.208;2024-02-21T10:00:42;98950.91;;;7.67;100.00
79481;BME280;68944;48.262;14.208;2024-02-21T10:03:07;98947.94;;;7.92;100.00
79481;BME280;68944;48.262;14.208;2024-02-21T10:05:37;98947.25;;;7.68;100.00
79481;BME280;68944;48.262;14.208;2024-02-21T10:08:06;98946.75;;;7.95;100.00
79481;BME280;68944;48.262;14.208;2024-02-21T10:10:45;98940.09;;;7.99;100.00
79481;BME280;68944;48.262;14.208;2024-02-21T10:13:21;98936.63;;;7.99;100.00
79481;BME280;68944;48.262;14.208;2024-02-21T10:15:47;98934.75;;;7.92;100.00
79481;BME280;68944;48.262;14.208;2024-02-21T10:18:17;98928.78;;;8.05;100.00
79481;BME280;68944;48.262;14.208;2024-02-21T10:20:43;98934.88;;;8.06;100.00
79481;BME280;68944;48.262;14.208;2024-02-21T10:23:09;98940.78;;;8.30;100.00
79481;BME280;68944;48.262;14.208;2024-02-21T10:25:35;98942.50;;;8.60;100.00
79481;BME280;68944;48.262;14.208;2024-02-21T10:28:04;98942.47;;;8.38;100.00
79481;BME280;68944;48.262;14.208;2024-02-21T10:30:29;98933.47;;;8.25;100.00
79481;BME280;68944;48.262;14.208;2024-02-21T10:32:55;98930.69;;;8.34;100.00
79481;BME280;68944;48.262;14.208;2024-02-21T10:35:33;98916.59;;;8.48;100.00
79481;BME280;68944;48.262;14.208;2024-02-21T10:37:59;98909.88;;;8.74;100.00
79481;BME280;68944;48.262;14.208;2024-02-21T10:40:29;98904.63;;;8.81;100.00
79481;BME280;68944;48.262;14.208;2024-02-21T10:43:00;98894.75;;;8.90;100.00
79481;BME280;68944;48.262;14.208;2024-02-21T10:45:35;98893.22;;;8.74;100.00
79481;BME280;68944;48.262;14.208;2024-02-21T10:48:13;98880.03;;;8.74;100.00
79481;BME280;68944;48.262;14.208;2024-02-21T10:50:56;98879.91;;;8.89;100.00
79481;BME280;68944;48.262;14.208;2024-02-21T10:56:26;98868.47;;;8.82;100.00
79481;BME280;68944;48.262;14.208;2024-02-21T10:58:53;98872.09;;;8.74;100.00
79481;BME280;68944;48.262;14.208;2024-02-21T11:01:21;98857.91;;;8.82;100.00
79481;BME280;68944;48.262;14.208;2024-02-21T11:03:49;98853.22;;;8.84;100.00
79481;BME280;68944;48.262;14.208;2024-02-21T11:06:16;98851.06;;;8.94;100.00
79481;BME280;68944;48.262;14.208;2024-02-21T11:08:43;98837.25;;;8.99;100.00
79481;BME280;68944;48.262;14.208;2024-02-21T11:11:12;98832.09;;;8.84;100.00
79481;BME280;68944;48.262;14.208;2024-02-21T11:13:42;98826.25;;;8.95;100.00
79481;BME280;68944;48.262;14.208;2024-02-21T11:16:21;98824.84;;;8.99;100.00
79481;BME280;68944;48.262;14.208;2024-02-21T11:18:47;98827.97;;;9.17;100.00
79481;BME280;68944;48.262;14.208;2024-02-21T11:21:13;98828.47;;;9.34;100.00
79481;BME280;68944;48.262;14.208;2024-02-21T11:23:38;98812.72;;;9.19;100.00
79481;BME280;68944;48.262;14.208;2024-02-21T11:26:18;98815.41;;;9.32;100.00
79481;BME280;68944;48.262;14.208;2024-02-21T11:29:03;98814.22;;;9.35;100.00
79481;BME280;68944;48.262;14.208;2024-02-21T11:31:42;98813.56;;;9.19;100.00
79481;BME280;68944;48.262;14.208;2024-02-21T11:34:11;98810.72;;;9.28;100.00
79481;BME280;68944;48.262;14.208;2024-02-21T11:36:51;98806.41;;;9.13;100.00
79481;BME280;68944;48.262;14.208;2024-02-21T11:39:24;98798.78;;;9.39;100.00
79481;BME280;68944;48.262;14.208;2024-02-21T11:42:03;98788.38;;;9.37;100.00
79481;BME280;68944;48.262;14.208;2024-02-21T11:44:30;98793.91;;;9.63;100.00
79481;BME280;68944;48.262;14.208;2024-02-21T11:46:56;98788.84;;;9.68;100.00
79481;BME280;68944;48.262;14.208;2024-02-21T11:49:24;98792.09;;;9.63;100.00
79481;BME280;68944;48.262;14.208;2024-02-21T11:51:58;98796.38;;;9.64;100.00
79481;BME280;68944;48.262;14.208;2024-02-21T11:54:24;98787.84;;;9.83;100.00
79481;BME280;68944;48.262;14.208;2024-02-21T11:56:49;98784.97;;;9.71;100.00
79481;BME280;68944;48.262;14.208;2024-02-21T11:59:15;98782.56;;;9.89;100.00
79481;BME280;68944;48.262;14.208;2024-02-21T12:01:41;98782.31;;;10.52;100.00
79481;BME280;68944;48.262;14.208;2024-02-21T12:04:07;98774.41;;;10.98;100.00
79481;BME280;68944;48.262;14.208;2024-02-21T12:06:33;98769.06;;;11.05;100.00
79481;BME280;68944;48.262;14.208;2024-02-21T12:08:59;98761.00;;;11.58;100.00
79481;BME280;68944;48.262;14.208;2024-02-21T12:11:24;98758.91;;;12.18;100.00
79481;BME280;68944;48.262;14.208;2024-02-21T12:14:03;98747.88;;;12.59;100.00
79481;BME280;68944;48.262;14.208;2024-02-21T12:16:33;98761.34;;;12.76;100.00
79481;BME280;68944;48.262;14.208;2024-02-21T12:19:00;98744.91;;;12.48;100.00
79481;BME280;68944;48.262;14.208;2024-02-21T12:21:35;98751.19;;;12.35;100.00
79481;BME280;68944;48.262;14.208;2024-02-21T12:24:22;98734.19;;;12.17;100.00
79481;BME280;68944;48.262;14.208;2024-02-21T12:26:49;98726.13;;;12.24;100.00
79481;BME280;68944;48.262;14.208;2024-02-21T12:29:15;98735.00;;;11.92;100.00
79481;BME280;68944;48.262;14.208;2024-02-21T12:31:40;98721.41;;;11.82;100.00
79481;BME280;68944;48.262;14.208;2024-02-21T12:34:06;98710.75;;;12.33;100.00
79481;BME280;68944;48.262;14.208;2024-02-21T12:36:40;98700.72;;;11.65;100.00
79481;BME280;68944;48.262;14.208;2024-02-21T12:39:14;98713.91;;;12.92;99.61
79481;BME280;68944;48.262;14.208;2024-02-21T12:41:40;98705.47;;;12.45;98.34
79481;BME280;68944;48.262;14.208;2024-02-21T12:44:09;98698.19;;;13.45;93.03
79481;BME280;68944;48.262;14.208;2024-02-21T12:46:37;98695.31;;;12.42;97.95
79481;BME280;68944;48.262;14.208;2024-02-21T12:49:03;98691.22;;;12.89;92.89
79481;BME280;68944;48.262;14.208;2024-02-21T12:51:30;98690.88;;;13.16;92.52
79481;BME280;68944;48.262;14.208;2024-02-21T12:53:56;98680.69;;;13.13;91.91
79481;BME280;68944;48.262;14.208;2024-02-21T12:56:22;98678.03;;;13.56;87.10